Delta Virtual Airport Information Service

Santa Ana John Wayne Airport

ICAO: KSNA Country: United States
Latitude: 33.6757 Longitude: -117.868
Latest Arrival : SWA169 (KLAS-KSNA) Latest Departure : SWA5048 (A) (KSNA-KPHX)


WX CaptureLIVE
Data provided by noaa.gov | Fetched at 07:25:05

METAR : KSNA 301253Z AUTO 05003KT 10SM CLR 10/03 A3013 RMK AO2 SLP201 T01000033

TAF : KSNA 301120Z 3012/0112 VRB04KT P6SM SCT150 BKN250 FM302000 22007KT P6SM SCT250 FM010200 VRB04KT P6SM SKC


Runway Data for KSNA
Data provided by openaviationdata.com

Runway ID Mag Var Hdg Length Elevation Surface ILS Freq ILS Id ILS Slope
01L 13 14° 5708 ft 56 ft Asphalt -- -- --
01R 13 14° 2889 ft 56 ft Asphalt -- -- --
19L 13 194° 2889 ft 56 ft Asphalt -- -- --
19R 13 194° 5708 ft 56 ft Asphalt 111.75 ISNA 3

Santa Ana John Wayne Airport, United States
Use only for reference purposes



Not for navigational purposes.